Portland, Oregon
Traffic Map
Current Weather Conditions
Portland, Oregon
Broken Clouds
Broken Clouds
19°
Feels Like: 19°
Wind Chill: 19° Ceiling: 8000
Heat Index: 19° Visibility: 10mi
Dew Point: 15° Wind: 7mph
Humidity: 76% Direction: 220° (SW)
Pressure: 30.02in Gusts: 0mph
Raw Report DataKPDX 010253Z 22006KT 10SM FEW030 SCT050 BKN080 19/15 A3002 RMK AO2 RAB17E27 SLP163 P0000 60000 T01940150 53004 $
Traffic Incident Summary
Active as of:
Severity:
Category:
InformationThere was an issue retrieving the traffic information for this location. Please try a different location or try again shortly.
Advertisements
Track Severe Weather on mobile